Time;durP1;ratioP1;P1;durP2;ratioP2;P2;SDS_P1;SDS_P2;PMS_P1;PMS_P2;Temp;Humidity;BMP_temperature;BMP_pressure;BME280_temperature;BME280_humidity;BME280_pressure;Samples;Min_cycle;Max_cycle;Signal;HPM_P1;HPM_P2
2022/08/09 00:01:09;;;;;;;2.92;1.30;;;;;;;16.79;74.85;97258.14;1658691;86;20960;-82
2022/08/09 00:03:35;;;;;;;2.90;2.10;;;;;;;16.80;74.59;97261.88;1640533;86;21338;-82
2022/08/09 00:06:01;;;;;;;2.62;1.50;;;;;;;16.83;73.96;97259.85;1666134;85;20999;-82
2022/08/09 00:08:26;;;;;;;3.87;1.70;;;;;;;16.87;74.56;97264.50;1652612;86;21091;-82
2022/08/09 00:10:52;;;;;;;4.05;1.80;;;;;;;16.90;74.12;97256.72;1642747;86;21344;-82
2022/08/09 00:13:18;;;;;;;2.98;1.80;;;;;;;16.92;73.57;97252.08;1651435;86;20939;-82
2022/08/09 00:15:45;;;;;;;3.02;1.75;;;;;;;16.94;73.75;97255.34;1654921;86;20999;-82
2022/08/09 00:18:11;;;;;;;3.75;2.08;;;;;;;16.95;73.47;97258.27;1658858;86;21439;-82
2022/08/09 00:20:38;;;;;;;4.67;2.50;;;;;;;16.90;73.54;97253.59;1642254;84;21092;-82
2022/08/09 00:23:06;;;;;;;4.10;2.20;;;;;;;16.85;73.54;97252.08;1665872;85;21052;-82
2022/08/09 00:25:31;;;;;;;3.87;2.02;;;;;;;16.85;73.53;97249.95;1664337;85;21079;-81
2022/08/09 00:27:57;;;;;;;3.02;2.30;;;;;;;16.86;73.58;97258.13;1659340;85;21033;-82
2022/08/09 00:30:23;;;;;;;4.60;2.52;;;;;;;16.87;73.49;97254.50;1678691;85;20960;-82
2022/08/09 00:32:48;;;;;;;6.42;2.77;;;;;;;16.86;73.50;97256.32;1678097;85;21107;-82
2022/08/09 00:35:15;;;;;;;4.17;2.80;;;;;;;16.84;73.72;97257.53;1666161;85;21024;-82
2022/08/09 00:37:41;;;;;;;5.60;2.92;;;;;;;16.84;73.72;97257.53;1678621;85;21078;-82
2022/08/09 00:40:10;;;;;;;5.40;3.17;;;;;;;16.80;73.63;97263.19;1651177;85;21879;-82
2022/08/09 00:42:36;;;;;;;4.22;3.00;;;;;;;16.76;73.61;97265.10;1677765;85;21028;-81
2022/08/09 00:45:03;;;;;;;5.20;2.90;;;;;;;16.73;73.73;97262.34;1678439;85;21378;-82
2022/08/09 00:47:30;;;;;;;3.45;2.70;;;;;;;16.74;73.90;97268.41;1673092;85;21043;-82
2022/08/09 00:49:59;;;;;;;5.17;3.02;;;;;;;16.74;74.00;97266.59;1673191;85;20985;-82
2022/08/09 00:52:26;;;;;;;5.70;2.92;;;;;;;16.76;74.12;97265.10;1651370;85;21068;-82
2022/08/09 00:54:52;;;;;;;4.65;2.75;;;;;;;16.76;74.21;97262.48;1654641;85;21471;-82
2022/08/09 00:57:20;;;;;;;7.87;3.15;;;;;;;16.76;74.43;97266.41;1678579;84;21020;-81
2022/08/09 00:59:46;;;;;;;3.02;2.60;;;;;;;16.73;74.42;97266.28;1658150;84;21091;-82
2022/08/09 01:02:15;;;;;;;3.40;2.87;;;;;;;16.69;74.27;97266.38;1667966;84;21073;-82
2022/08/09 01:04:54;;;;;;;6.97;3.20;;;;;;;16.77;74.44;97274.59;1678481;84;21379;-82
2022/08/09 01:07:42;;;;;;;5.17;3.58;;;;;;;16.78;74.23;97270.45;1670925;84;21016;-82
2022/08/09 01:10:53;;;;;;;7.37;3.27;;;;;;;16.78;74.31;97270.95;1678550;84;20993;-83
2022/08/09 01:13:54;;;;;;;4.45;3.55;;;;;;;16.73;74.35;97270.72;1682075;85;21082;-82
2022/08/09 01:16:23;;;;;;;5.58;3.47;;;;;;;16.69;74.52;97269.52;1682513;84;21389;-82
2022/08/09 01:18:49;;;;;;;7.80;3.27;;;;;;;16.65;74.77;97278.26;1678140;85;21398;-82
2022/08/09 01:21:39;;;;;;;4.15;3.25;;;;;;;16.58;74.86;97278.72;1674337;85;20972;-82
2022/08/09 01:24:19;;;;;;;4.70;3.37;;;;;;;16.55;74.99;97275.19;1667373;84;21402;-82
2022/08/09 01:27:08;;;;;;;6.90;3.15;;;;;;;16.58;75.12;97277.41;1670844;84;20971;-82
2022/08/09 01:29:47;;;;;;;5.97;3.58;;;;;;;16.58;75.22;97276.61;1670386;85;20992;-81
2022/08/09 01:32:12;;;;;;;8.05;4.80;;;;;;;16.59;75.50;97276.41;1647548;85;20959;-82
2022/08/09 01:34:38;;;;;;;9.03;4.28;;;;;;;16.49;75.42;97274.67;1677046;84;20999;-82
2022/08/09 01:37:06;;;;;;;9.90;5.08;;;;;;;16.49;75.42;97274.67;1608429;87;21015;-82
2022/08/09 01:39:34;;;;;;;6.22;4.17;;;;;;;16.53;75.30;97283.77;1651054;87;20984;-81
2022/08/09 01:42:02;;;;;;;6.65;4.20;;;;;;;16.53;75.36;97286.39;1635310;87;20961;-82
2022/08/09 01:44:28;;;;;;;9.30;4.50;;;;;;;16.54;75.38;97290.63;1652267;86;20999;-82
2022/08/09 01:46:54;;;;;;;6.80;4.20;;;;;;;16.55;75.51;97290.94;1664217;85;21384;-81
2022/08/09 01:49:20;;;;;;;7.30;4.47;;;;;;;16.56;75.73;97283.87;1676532;85;21004;-82
2022/08/09 01:51:50;;;;;;;5.72;4.03;;;;;;;16.53;75.42;97291.63;1653966;86;21549;-81
2022/08/09 01:54:16;;;;;;;7.40;4.92;;;;;;;16.49;75.51;97285.98;1658921;86;21353;-82
2022/08/09 01:56:44;;;;;;;6.80;3.98;;;;;;;16.50;75.62;97283.66;1661882;86;20995;-82
2022/08/09 01:59:12;;;;;;;7.15;4.20;;;;;;;16.53;75.48;97288.20;1663527;86;21035;-82
2022/08/09 02:01:38;;;;;;;7.12;4.45;;;;;;;16.53;75.50;97284.27;1663455;86;20995;-82
2022/08/09 02:04:04;;;;;;;7.17;4.05;;;;;;;16.51;75.67;97279.22;1666380;86;20967;-82
2022/08/09 02:09:14;;;;;;;6.50;4.30;;;;;;;16.44;76.02;97283.66;1671926;85;21037;-82
2022/08/09 02:11:39;;;;;;;7.33;4.20;;;;;;;16.40;76.22;97285.02;1674379;85;21363;-82
2022/08/09 02:14:06;;;;;;;6.05;3.65;;;;;;;16.36;76.47;97283.80;1681675;85;21091;-82
2022/08/09 02:16:35;;;;;;;5.87;3.83;;;;;;;16.38;76.43;97289.66;1655351;87;21935;-82
2022/08/09 02:19:01;;;;;;;6.58;4.47;;;;;;;16.39;76.52;97286.84;1671732;85;21056;-82
2022/08/09 02:21:27;;;;;;;6.40;4.37;;;;;;;16.41;76.71;97288.76;1653307;87;21084;-81
2022/08/09 02:23:54;;;;;;;6.35;4.37;;;;;;;16.41;76.64;97284.02;1584368;88;21042;-82
2022/08/09 02:26:20;;;;;;;7.12;4.50;;;;;;;16.38;76.84;97283.91;1624431;88;21424;-82
2022/08/09 02:28:50;;;;;;;6.55;4.72;;;;;;;16.36;76.85;97284.61;1677722;85;21098;-81
2022/08/09 02:31:32;;;;;;;6.55;4.12;;;;;;;16.34;76.78;97284.00;1671552;85;20985;-82
2022/08/09 02:34:01;;;;;;;6.47;4.00;;;;;;;16.34;76.77;97283.20;1654182;87;20996;-82
2022/08/09 02:36:31;;;;;;;4.62;3.50;;;;;;;16.30;76.69;97281.98;1653499;86;21440;-82
2022/08/09 02:38:59;;;;;;;6.97;4.40;;;;;;;16.26;77.37;97280.22;1657059;86;20996;-81
2022/08/09 02:41:31;;;;;;;5.72;4.40;;;;;;;16.26;77.45;97282.04;1653913;87;20977;-82
2022/08/09 02:44:03;;;;;;;6.33;3.37;;;;;;;16.24;77.72;97283.55;1648024;87;21378;-82
2022/08/09 02:46:28;;;;;;;6.10;3.87;;;;;;;16.26;77.49;97287.28;1654022;87;21429;-81
2022/08/09 02:49:01;;;;;;;4.53;3.02;;;;;;;16.24;77.90;97280.92;1654086;87;21148;-82
2022/08/09 02:51:27;;;;;;;3.22;2.40;;;;;;;16.24;76.06;97282.23;1653977;86;21004;-82
2022/08/09 02:53:56;;;;;;;3.87;2.30;;;;;;;16.21;77.07;97267.70;1654388;86;21443;-82
2022/08/09 02:56:21;;;;;;;4.70;2.37;;;;;;;16.30;75.94;97288.03;1654100;86;21008;-82
2022/08/09 02:58:47;;;;;;;3.90;1.70;;;;;;;16.30;73.40;97282.78;1654131;87;21027;-82
2022/08/09 03:01:13;;;;;;;5.12;1.82;;;;;;;16.33;73.67;97290.25;1654272;87;20964;-81
2022/08/09 03:03:39;;;;;;;3.87;2.17;;;;;;;16.37;73.62;97285.42;1654218;87;21044;-81
2022/08/09 03:06:05;;;;;;;4.92;1.75;;;;;;;16.38;73.21;97287.84;1654215;86;21465;-82
2022/08/09 03:08:31;;;;;;;3.52;1.30;;;;;;;16.40;72.46;97290.27;1653806;87;21028;-81
2022/08/09 03:10:57;;;;;;;3.22;1.47;;;;;;;16.42;70.79;97296.94;1654286;86;21372;-82
2022/08/09 03:13:22;;;;;;;2.33;1.25;;;;;;;16.47;71.42;97297.68;1654354;86;20968;-82
2022/08/09 03:15:48;;;;;;;3.35;1.60;;;;;;;16.50;70.64;97294.16;1667676;85;21379;-82
2022/08/09 03:18:14;;;;;;;5.17;2.25;;;;;;;16.54;71.33;97296.38;1653938;86;20984;-82
2022/08/09 03:20:41;;;;;;;3.60;2.67;;;;;;;16.54;71.88;97296.38;1612578;86;20988;-82
2022/08/09 03:23:07;;;;;;;5.55;3.40;;;;;;;16.50;72.43;97294.66;1624595;88;21062;-82
2022/08/09 03:25:32;;;;;;;3.15;2.42;;;;;;;16.47;73.03;97295.86;1624537;88;20964;-81
2022/08/09 03:27:59;;;;;;;4.08;2.22;;;;;;;16.44;71.38;97294.14;1624537;88;20957;-82
2022/08/09 03:30:25;;;;;;;5.80;2.87;;;;;;;16.44;70.82;97288.39;1624578;88;21034;-82
2022/08/09 03:32:51;;;;;;;3.12;2.27;;;;;;;16.47;72.33;97292.43;1678718;85;20976;-82
2022/08/09 03:35:17;;;;;;;6.42;2.92;;;;;;;16.45;71.86;97293.13;1682622;85;21071;-81
2022/08/09 03:37:42;;;;;;;6.60;3.75;;;;;;;16.43;71.92;97291.19;1678482;85;21008;-82
2022/08/09 03:40:09;;;;;;;6.15;3.77;;;;;;;16.39;72.26;97293.90;1676492;85;21488;-82
2022/08/09 03:42:35;;;;;;;3.58;1.80;;;;;;;16.36;73.18;97295.61;1678661;85;20944;-82
2022/08/09 03:45:01;;;;;;;3.95;2.50;;;;;;;16.38;69.12;97298.84;1678674;85;21366;-82
2022/08/09 03:47:27;;;;;;;5.30;3.83;;;;;;;16.41;70.46;97298.44;1678607;85;21370;-81
2022/08/09 03:49:52;;;;;;;6.25;3.85;;;;;;;16.42;72.90;97290.88;1678455;85;21028;-82
2022/08/09 03:52:19;;;;;;;5.97;3.65;;;;;;;16.35;72.81;97285.63;1678788;85;20982;-82
2022/08/09 03:54:45;;;;;;;6.45;4.05;;;;;;;16.29;72.87;97290.34;1640610;85;21430;-82
2022/08/09 03:57:12;;;;;;;6.17;3.90;;;;;;;16.28;70.70;97291.86;1678396;85;21040;-82
2022/08/09 03:59:38;;;;;;;6.50;4.33;;;;;;;16.26;72.81;97292.53;1678603;85;21412;-82
2022/08/09 04:02:04;;;;;;;5.70;3.12;;;;;;;16.26;73.81;97288.59;1678582;85;21048;-82
2022/08/09 04:04:30;;;;;;;5.12;3.40;;;;;;;16.30;71.17;97291.97;1678688;85;20980;-81
2022/08/09 04:06:57;;;;;;;6.03;2.98;;;;;;;16.36;72.65;97289.86;1707808;84;20991;-82
2022/08/09 04:09:24;;;;;;;4.85;3.47;;;;;;;16.37;70.64;97295.41;1678628;85;20928;-82
2022/08/09 04:12:16;;;;;;;7.00;4.03;;;;;;;16.37;71.43;97292.78;1678437;85;21422;-82
2022/08/09 04:14:42;;;;;;;7.47;3.87;;;;;;;16.34;73.07;97292.38;1678607;85;21343;-83
2022/08/09 04:17:08;;;;;;;9.33;3.90;;;;;;;16.29;73.82;97297.41;1678633;85;20984;-81
2022/08/09 04:19:33;;;;;;;6.83;4.78;;;;;;;16.26;73.65;97293.34;1678719;85;20967;-82
2022/08/09 04:21:59;;;;;;;7.80;4.53;;;;;;;16.22;74.84;97290.80;1658134;84;20956;-82
2022/08/09 04:24:25;;;;;;;3.25;2.00;;;;;;;16.20;74.52;97292.31;1682009;84;21070;-82
2022/08/09 04:26:52;;;;;;;4.78;2.25;;;;;;;16.20;70.95;97292.81;1680192;84;21006;-82
2022/08/09 04:29:19;;;;;;;4.65;2.02;;;;;;;16.27;71.13;97294.14;1684586;84;20979;-82
2022/08/09 04:31:45;;;;;;;3.15;1.35;;;;;;;16.35;69.42;97303.98;1693630;84;21425;-82
2022/08/09 04:34:11;;;;;;;3.40;1.80;;;;;;;16.35;69.42;97303.98;1696591;84;21054;-82
2022/08/09 04:36:36;;;;;;;3.08;1.27;;;;;;;16.39;69.93;97309.13;1680731;84;21069;-82
2022/08/09 04:39:07;;;;;;;1.52;1.12;;;;;;;16.40;69.00;97310.75;1694403;84;20945;-82
2022/08/09 04:41:33;;;;;;;1.75;0.90;;;;;;;16.42;67.80;97308.73;1666536;85;20995;-82
2022/08/09 04:43:59;;;;;;;3.65;1.62;;;;;;;16.46;67.69;97306.55;1676344;85;20968;-82
2022/08/09 04:46:25;;;;;;;2.25;1.15;;;;;;;16.47;67.50;97306.36;1668650;85;21020;-82
2022/08/09 04:48:51;;;;;;;2.47;1.17;;;;;;;16.47;67.65;97301.61;1666521;85;21469;-81
2022/08/09 04:51:16;;;;;;;2.55;1.40;;;;;;;16.45;67.57;97302.31;1672551;85;20986;-82
2022/08/09 04:53:42;;;;;;;2.12;1.27;;;;;;;16.44;67.99;97302.02;1675171;85;21015;-82
2022/08/09 04:56:08;;;;;;;3.05;1.22;;;;;;;16.44;67.20;97308.06;1673577;85;22002;-82
2022/08/09 04:58:33;;;;;;;1.42;0.90;;;;;;;16.48;67.35;97311.09;1668854;85;21425;-81
2022/08/09 05:01:00;;;;;;;1.85;1.07;;;;;;;16.51;65.87;97308.89;1654411;86;21026;-82
2022/08/09 05:03:25;;;;;;;2.55;1.05;;;;;;;16.57;66.91;97322.22;1669617;85;21674;-81
2022/08/09 05:05:51;;;;;;;2.55;1.20;;;;;;;16.58;66.52;97317.27;1669489;85;20980;-82
2022/08/09 05:08:17;;;;;;;3.05;1.02;;;;;;;16.62;65.93;97320.64;1678305;85;21019;-82
2022/08/09 05:10:43;;;;;;;2.42;1.10;;;;;;;16.67;66.30;97320.08;1670591;85;21072;-82
2022/08/09 05:13:08;;;;;;;3.60;1.00;;;;;;;16.67;66.49;97313.01;1678219;85;20990;-82
2022/08/09 05:15:34;;;;;;;2.17;1.00;;;;;;;16.67;66.30;97320.88;1683404;85;20972;-82
2022/08/09 05:18:00;;;;;;;2.10;1.10;;;;;;;16.68;64.99;97317.25;1666722;85;21031;-82
2022/08/09 05:20:26;;;;;;;1.80;0.90;;;;;;;16.68;65.84;97328.25;1668337;85;21397;-81
2022/08/09 05:22:52;;;;;;;2.20;1.12;;;;;;;16.69;65.54;97328.55;1655764;83;21063;-82
2022/08/09 05:25:21;;;;;;;2.77;1.20;;;;;;;16.70;65.56;97326.23;1652890;87;21399;-81
2022/08/09 05:27:47;;;;;;;2.00;1.25;;;;;;;16.71;65.82;97327.84;1636282;87;21039;-81
2022/08/09 05:30:14;;;;;;;1.60;1.07;;;;;;;16.70;66.03;97328.35;1654273;87;21015;-82
2022/08/09 05:32:39;;;;;;;1.98;1.20;;;;;;;16.70;66.36;97330.17;1654325;87;20983;-82
2022/08/09 05:35:06;;;;;;;1.85;1.00;;;;;;;16.69;65.88;97330.67;1636448;87;21023;-82
2022/08/09 05:37:32;;;;;;;2.70;1.02;;;;;;;16.75;65.96;97335.13;1653477;87;21478;-82
2022/08/09 05:39:58;;;;;;;2.60;1.30;;;;;;;16.82;66.50;97345.66;1654272;86;20969;-81
2022/08/09 05:42:23;;;;;;;4.15;1.30;;;;;;;16.90;65.29;97348.59;1652955;86;20956;-82
2022/08/09 05:44:50;;;;;;;2.92;1.05;;;;;;;16.96;64.34;97343.89;1652194;86;21059;-82
2022/08/09 05:47:17;;;;;;;1.57;1.30;;;;;;;17.02;66.16;97351.77;1652549;87;21019;-82
2022/08/09 05:49:42;;;;;;;1.35;0.88;;;;;;;17.07;65.23;97353.28;1650058;87;21021;-82
2022/08/09 05:52:08;;;;;;;2.50;1.12;;;;;;;17.15;65.21;97347.05;1638735;87;21269;-82
2022/08/09 05:54:34;;;;;;;2.58;1.37;;;;;;;17.20;64.84;97347.25;1649929;87;21450;-81
2022/08/09 05:57:00;;;;;;;2.52;1.30;;;;;;;17.26;66.75;97355.66;1652666;86;21004;-83
2022/08/09 05:59:26;;;;;;;2.12;1.05;;;;;;;17.25;66.71;97344.05;1632504;86;21031;-82
2022/08/09 06:01:51;;;;;;;3.72;1.60;;;;;;;17.28;66.59;97343.64;1637604;86;20999;-82
2022/08/09 06:04:17;;;;;;;3.08;1.05;;;;;;;17.30;66.03;97349.00;1654094;87;20932;-82
2022/08/09 06:06:43;;;;;;;2.70;1.07;;;;;;;17.34;66.07;97348.09;1651025;87;21020;-82
2022/08/09 06:09:08;;;;;;;1.98;1.40;;;;;;;17.36;66.26;97349.50;1637929;87;20984;-83
2022/08/09 06:11:34;;;;;;;1.92;0.98;;;;;;;17.41;65.62;97356.80;1647017;86;21314;-82
2022/08/09 06:14:00;;;;;;;2.47;1.40;;;;;;;17.45;65.60;97353.26;1637074;87;20957;-82
2022/08/09 06:16:25;;;;;;;1.27;0.80;;;;;;;17.51;65.86;97352.44;1635569;86;21019;-82
2022/08/09 06:18:52;;;;;;;1.57;0.90;;;;;;;17.52;64.04;97344.35;1652060;87;21033;-83
2022/08/09 06:21:18;;;;;;;1.72;0.80;;;;;;;17.56;64.01;97353.44;1652504;85;20953;-82
2022/08/09 06:23:46;;;;;;;3.02;1.40;;;;;;;17.59;65.43;97360.14;1657413;86;20995;-82
2022/08/09 06:26:15;;;;;;;2.37;1.07;;;;;;;17.59;62.77;97353.06;1658584;86;21087;-82
2022/08/09 06:28:40;;;;;;;1.70;0.98;;;;;;;17.63;63.64;97355.58;1658839;85;20972;-82
2022/08/09 06:31:06;;;;;;;1.45;1.00;;;;;;;17.64;64.55;97352.45;1659230;86;21420;-81
2022/08/09 06:33:32;;;;;;;4.00;0.98;;;;;;;17.65;64.63;97352.24;1659165;86;20960;-82
2022/08/09 06:35:57;;;;;;;2.08;1.10;;;;;;;17.67;63.74;97355.47;1657645;86;20992;-82
2022/08/09 06:38:23;;;;;;;3.20;1.32;;;;;;;17.73;63.77;97349.13;1659199;86;21383;-82
2022/08/09 06:40:49;;;;;;;1.55;0.90;;;;;;;17.76;64.41;97355.31;1659208;86;21047;-82
2022/08/09 06:43:15;;;;;;;3.00;0.90;;;;;;;17.78;63.72;97355.41;1658152;86;21040;-82
2022/08/09 06:45:40;;;;;;;2.67;1.07;;;;;;;17.81;63.49;97360.25;1657544;86;21357;-82
2022/08/09 06:48:06;;;;;;;1.95;0.98;;;;;;;17.84;64.90;97359.03;1658357;86;20991;-81
2022/08/09 06:50:32;;;;;;;2.17;1.30;;;;;;;17.85;64.15;97364.09;1657809;86;20983;-82
2022/08/09 06:52:59;;;;;;;1.40;1.00;;;;;;;17.89;64.44;97365.80;1657320;86;20980;-82
2022/08/09 06:55:28;;;;;;;1.82;0.90;;;;;;;17.92;64.53;97364.91;1659220;86;22114;-82
2022/08/09 06:57:53;;;;;;;2.95;1.50;;;;;;;17.95;63.92;97361.86;1659054;86;21068;-82
2022/08/09 07:00:18;;;;;;;2.58;1.07;;;;;;;17.99;64.40;97360.44;1651949;86;21327;-82
2022/08/09 07:02:44;;;;;;;3.27;0.90;;;;;;;17.99;65.79;97360.94;1648687;87;20945;-82
2022/08/09 07:05:11;;;;;;;2.12;1.00;;;;;;;17.99;63.69;97363.57;1650877;87;21011;-82
2022/08/09 07:07:37;;;;;;;2.87;0.70;;;;;;;18.07;64.20;97366.51;1658572;86;21429;-82
2022/08/09 07:10:03;;;;;;;2.10;1.17;;;;;;;18.15;61.69;97368.91;1659425;86;20995;-82
2022/08/09 07:12:29;;;;;;;1.72;1.25;;;;;;;18.26;63.67;97378.81;1658040;86;20947;-82
2022/08/09 07:14:55;;;;;;;2.27;1.10;;;;;;;18.33;64.84;97373.52;1659388;86;20968;-82
2022/08/09 07:17:21;;;;;;;3.58;1.50;;;;;;;18.35;63.94;97386.77;1659423;86;20995;-82
2022/08/09 07:19:46;;;;;;;2.98;1.10;;;;;;;18.36;63.52;97384.94;1659375;86;21031;-82
2022/08/09 07:22:13;;;;;;;3.62;1.05;;;;;;;18.40;63.18;97387.48;1663368;85;21059;-82
2022/08/09 07:24:39;;;;;;;1.40;1.07;;;;;;;18.44;63.82;97386.86;1673616;85;21111;-82
2022/08/09 07:27:04;;;;;;;2.15;0.90;;;;;;;18.49;63.68;97388.86;1664714;86;21032;-82
2022/08/09 07:29:30;;;;;;;2.02;1.00;;;;;;;18.53;63.93;97386.11;1662904;85;20964;-82
2022/08/09 07:31:57;;;;;;;1.62;1.10;;;;;;;18.55;63.47;97387.55;1669436;85;21050;-83
2022/08/09 07:34:23;;;;;;;3.85;1.72;;;;;;;18.55;63.27;97391.49;1681639;85;20982;-83
2022/08/09 07:36:49;;;;;;;2.35;1.40;;;;;;;18.59;63.19;97397.14;1663019;85;22233;-82
2022/08/09 07:39:15;;;;;;;2.05;1.35;;;;;;;18.63;63.95;97389.16;1655155;85;21042;-83
2022/08/09 07:41:41;;;;;;;3.22;1.25;;;;;;;18.68;64.28;97397.23;1651961;87;21391;-82
2022/08/09 07:44:07;;;;;;;2.10;1.42;;;;;;;18.72;63.34;97395.01;1654330;86;20992;-82
2022/08/09 07:46:32;;;;;;;3.55;1.50;;;;;;;18.76;63.75;97393.57;1677562;85;20956;-82
2022/08/09 07:48:58;;;;;;;2.62;1.62;;;;;;;18.85;64.22;97401.52;1662619;85;21319;-83
2022/08/09 07:51:24;;;;;;;3.95;1.35;;;;;;;18.91;64.34;97403.84;1678726;85;20952;-83
2022/08/09 07:53:51;;;;;;;2.98;1.42;;;;;;;18.95;64.70;97401.08;1678428;85;21000;-82
2022/08/09 07:56:17;;;;;;;2.65;1.10;;;;;;;18.98;63.08;97396.70;1667289;85;21098;-82
2022/08/09 07:58:43;;;;;;;2.67;1.40;;;;;;;19.01;63.37;97398.91;1670532;85;20960;-82
2022/08/09 08:01:09;;;;;;;4.83;1.35;;;;;;;19.04;63.42;97404.59;1666127;85;20994;-82
2022/08/09 08:03:34;;;;;;;2.20;1.45;;;;;;;19.09;63.25;97396.86;1676062;85;21038;-83
2022/08/09 08:06:00;;;;;;;3.70;1.30;;;;;;;19.13;63.49;97405.95;1671958;85;20956;-83
2022/08/09 08:08:26;;;;;;;3.20;1.70;;;;;;;19.19;61.82;97395.06;1669592;85;20995;-82
2022/08/09 08:10:52;;;;;;;2.72;1.62;;;;;;;19.25;62.62;97398.19;1677498;85;21394;-82
2022/08/09 08:13:17;;;;;;;2.70;1.15;;;;;;;19.29;61.59;97403.33;1666697;85;20976;-82
2022/08/09 08:15:44;;;;;;;3.12;1.20;;;;;;;19.33;62.96;97408.98;1663655;85;21016;-82
2022/08/09 08:18:10;;;;;;;3.27;1.42;;;;;;;19.36;61.25;97412.50;1690379;84;22014;-83
2022/08/09 08:20:36;;;;;;;2.77;1.40;;;;;;;19.41;61.41;97403.47;1656841;85;21040;-82
2022/08/09 08:23:04;;;;;;;1.57;1.10;;;;;;;19.47;61.29;97407.37;1656745;85;20949;-83
2022/08/09 08:25:29;;;;;;;3.05;1.10;;;;;;;19.55;60.72;97414.26;1653461;87;21071;-82
2022/08/09 08:27:55;;;;;;;2.08;1.05;;;;;;;19.62;60.32;97414.20;1654284;86;21056;-83
2022/08/09 08:30:21;;;;;;;3.02;1.40;;;;;;;19.69;58.18;97411.83;1634699;86;21368;-83
2022/08/09 08:32:47;;;;;;;2.87;1.30;;;;;;;19.77;59.58;97413.38;1607000;88;20980;-82
2022/08/09 08:35:12;;;;;;;2.47;1.22;;;;;;;19.88;58.06;97410.05;1619380;88;21016;-82
2022/08/09 08:37:38;;;;;;;2.60;1.62;;;;;;;20.00;59.68;97425.45;1628077;87;21521;-82
2022/08/09 08:40:05;;;;;;;3.22;1.60;;;;;;;20.09;59.27;97417.58;1671778;85;20987;-83
2022/08/09 08:42:31;;;;;;;4.58;1.50;;;;;;;20.20;58.50;97420.03;1654329;87;21052;-83
2022/08/09 08:44:58;;;;;;;3.83;1.62;;;;;;;20.32;58.59;97421.41;1662344;85;21411;-83
2022/08/09 08:47:28;;;;;;;3.02;1.22;;;;;;;20.46;59.13;97417.66;1664082;85;21031;-83
2022/08/09 08:49:55;;;;;;;3.83;1.70;;;;;;;20.54;57.77;97417.89;1664729;85;20999;-82
2022/08/09 08:52:24;;;;;;;3.33;1.45;;;;;;;20.58;58.57;97422.51;1666098;85;21463;-83
2022/08/09 08:54:53;;;;;;;1.82;1.55;;;;;;;20.64;56.46;97420.30;1634901;86;21059;-83
2022/08/09 08:57:20;;;;;;;2.42;1.60;;;;;;;20.75;58.80;97421.41;1688352;84;20981;-82
2022/08/09 08:59:47;;;;;;;3.90;1.57;;;;;;;20.86;57.29;97422.00;1626282;87;21096;-83
2022/08/09 09:02:22;;;;;;;3.17;1.45;;;;;;;20.96;58.05;97424.91;1651582;87;21111;-83
2022/08/09 09:04:50;;;;;;;2.95;1.62;;;;;;;21.08;58.99;97422.84;1664107;86;21418;-83
2022/08/09 09:07:16;;;;;;;5.15;1.20;;;;;;;21.23;59.15;97417.97;1667305;85;20940;-83
2022/08/09 09:09:45;;;;;;;6.15;2.30;;;;;;;21.34;58.04;97423.05;1674455;85;21422;-83
2022/08/09 09:12:11;;;;;;;3.65;1.47;;;;;;;21.23;57.43;97421.94;1666575;85;21386;-82
2022/08/09 09:14:36;;;;;;;3.67;1.50;;;;;;;21.13;56.48;97415.05;1664046;85;21059;-83
2022/08/09 09:17:02;;;;;;;5.08;1.57;;;;;;;21.09;55.52;97419.17;1665374;85;21111;-83
2022/08/09 09:19:28;;;;;;;3.12;1.50;;;;;;;20.83;56.97;97426.41;1671116;85;21043;-83
2022/08/09 09:22:05;;;;;;;3.45;1.70;;;;;;;20.79;56.71;97419.13;1670135;85;21042;-82
2022/08/09 09:24:35;;;;;;;2.87;1.00;;;;;;;20.72;56.04;97428.45;1654141;87;21007;-83
2022/08/09 09:27:01;;;;;;;2.08;1.22;;;;;;;20.85;56.87;97425.67;1653706;87;21019;-83
2022/08/09 09:29:34;;;;;;;1.77;1.30;;;;;;;21.00;54.84;97426.61;1654284;87;21437;-83
2022/08/09 09:32:00;;;;;;;3.12;1.30;;;;;;;21.09;55.28;97425.26;1635201;86;20987;-83
2022/08/09 09:34:25;;;;;;;2.27;1.25;;;;;;;21.26;55.84;97424.96;1654265;87;21646;-83
2022/08/09 09:36:51;;;;;;;2.75;1.50;;;;;;;21.36;55.01;97420.47;1654029;86;21043;-83
2022/08/09 09:39:17;;;;;;;2.90;1.40;;;;;;;21.49;55.03;97428.22;1654129;87;21102;-82
2022/08/09 09:41:43;;;;;;;3.22;1.10;;;;;;;21.66;54.74;97420.97;1633711;87;20960;-83
2022/08/09 09:44:08;;;;;;;4.75;1.25;;;;;;;21.78;55.56;97431.03;1654195;86;21250;-82
2022/08/09 09:46:39;;;;;;;2.60;1.37;;;;;;;21.78;53.43;97427.87;1654213;85;21307;-82
2022/08/09 09:49:09;;;;;;;2.98;1.60;;;;;;;21.81;53.47;97427.95;1654242;87;21450;-83
2022/08/09 09:51:36;;;;;;;2.42;1.20;;;;;;;21.84;54.07;97418.23;1652283;87;21027;-83
2022/08/09 09:54:12;;;;;;;4.40;1.42;;;;;;;21.83;54.03;97423.23;1653998;87;21069;-83
2022/08/09 09:56:43;;;;;;;3.37;1.20;;;;;;;21.89;53.57;97424.96;1654276;87;21451;-83
2022/08/09 09:59:10;;;;;;;3.45;1.37;;;;;;;21.81;53.46;97430.60;1640187;87;21051;-83
2022/08/09 10:01:36;;;;;;;2.45;1.07;;;;;;;21.57;53.91;97421.27;1654121;87;21433;-82
2022/08/09 10:04:02;;;;;;;3.27;1.30;;;;;;;21.62;54.51;97422.42;1653728;87;21020;-83
2022/08/09 10:06:39;;;;;;;2.40;1.15;;;;;;;21.75;54.88;97416.94;1653055;86;21032;-83
2022/08/09 10:09:05;;;;;;;1.87;1.00;;;;;;;21.81;53.94;97414.73;1654189;86;21000;-83
2022/08/09 10:11:32;;;;;;;2.65;1.20;;;;;;;21.91;54.24;97412.83;1654138;87;20972;-83
2022/08/09 10:13:57;;;;;;;3.85;1.25;;;;;;;22.07;54.08;97411.66;1651389;87;21441;-83
2022/08/09 10:16:35;;;;;;;4.35;1.22;;;;;;;22.29;53.44;97405.78;1641060;86;20968;-84
2022/08/09 10:19:05;;;;;;;6.05;1.87;;;;;;;22.43;54.99;97409.28;1651463;87;21000;-84
2022/08/09 10:21:31;;;;;;;5.08;1.40;;;;;;;22.64;54.04;97403.92;1652504;86;21431;-83
2022/08/09 10:24:00;;;;;;;3.47;1.17;;;;;;;22.69;52.29;97398.72;1637171;86;21021;-83
2022/08/09 10:26:25;;;;;;;5.12;1.17;;;;;;;22.82;52.07;97403.48;1653973;84;21367;-83
2022/08/09 10:28:51;;;;;;;2.02;1.20;;;;;;;22.93;52.89;97409.27;1653325;87;21064;-83
2022/08/09 10:31:17;;;;;;;8.68;1.55;;;;;;;22.91;51.19;97408.19;1647852;86;21012;-83
2022/08/09 10:33:43;;;;;;;2.45;1.30;;;;;;;22.79;52.08;97402.63;1655543;85;21016;-83
2022/08/09 10:36:10;;;;;;;2.25;1.25;;;;;;;22.60;53.19;97398.78;1654029;87;21056;-82
2022/08/09 10:38:37;;;;;;;1.77;1.15;;;;;;;22.44;53.71;97413.55;1667192;85;21106;-83
2022/08/09 10:41:03;;;;;;;4.40;1.35;;;;;;;22.29;53.71;97415.05;1651227;87;21460;-83
2022/08/09 10:43:29;;;;;;;2.92;1.50;;;;;;;22.14;54.32;97410.23;1645179;87;20992;-83
2022/08/09 10:45:55;;;;;;;5.35;1.32;;;;;;;22.03;54.34;97407.03;1653186;86;20972;-83
2022/08/09 10:48:29;;;;;;;3.50;1.10;;;;;;;21.99;53.94;97402.72;1649769;86;21371;-82
2022/08/09 10:51:18;;;;;;;3.10;1.32;;;;;;;22.11;53.10;97404.86;1646997;87;20980;-83
2022/08/09 10:54:04;;;;;;;2.58;2.02;;;;;;;22.26;54.81;97405.73;1653914;86;21076;-83
2022/08/09 10:56:37;;;;;;;2.72;1.17;;;;;;;22.40;54.61;97394.38;1652429;86;21021;-83
2022/08/09 10:59:28;;;;;;;3.65;1.27;;;;;;;22.48;52.31;97395.89;1652490;86;21442;-83
2022/08/09 11:01:53;;;;;;;2.33;1.35;;;;;;;22.52;51.54;97394.37;1653102;87;21421;-83
2022/08/09 11:04:25;;;;;;;4.00;1.30;;;;;;;22.63;52.74;97404.96;1652671;87;21031;-83
2022/08/09 11:07:02;;;;;;;2.08;1.40;;;;;;;22.75;52.53;97404.39;1654205;87;21011;-83
2022/08/09 11:09:47;;;;;;;2.02;1.17;;;;;;;22.89;51.75;97396.22;1637508;87;21526;-83
2022/08/09 11:12:24;;;;;;;2.87;1.25;;;;;;;23.04;53.28;97393.86;1646300;87;21432;-83
2022/08/09 11:14:54;;;;;;;2.80;1.30;;;;;;;23.17;52.49;97390.12;1641524;87;22020;-84
2022/08/09 11:17:25;;;;;;;2.75;1.25;;;;;;;23.12;50.09;97376.79;1652025;87;21341;-84
2022/08/09 11:20:06;;;;;;;3.25;1.30;;;;;;;23.18;50.99;97385.91;1652192;86;21107;-83
2022/08/09 11:22:50;;;;;;;3.17;1.22;;;;;;;23.19;49.06;97374.27;1652590;85;21422;-83
2022/08/09 11:25:22;;;;;;;3.77;1.37;;;;;;;23.27;51.49;97377.88;1649632;87;21329;-82
2022/08/09 11:27:50;;;;;;;3.77;1.20;;;;;;;23.22;51.67;97387.56;1580480;88;21022;-83
2022/08/09 11:30:31;;;;;;;3.22;1.50;;;;;;;22.87;51.57;97391.67;1613628;88;21065;-83
2022/08/09 11:33:17;;;;;;;2.10;1.12;;;;;;;22.86;50.81;97391.39;1600454;88;20976;-83
2022/08/09 11:35:46;;;;;;;2.33;1.12;;;;;;;22.91;50.35;97383.53;1645742;87;20988;-83
2022/08/09 11:38:33;;;;;;;2.25;1.20;;;;;;;22.98;49.63;97381.05;1642492;86;21000;-83
2022/08/09 11:41:15;;;;;;;2.62;1.10;;;;;;;23.00;49.67;97387.43;1648730;86;20976;-83